createdAt,value
2022-08-11T00:01:14.998Z,41.88
2022-08-11T00:03:51.380Z,41.89
2022-08-11T00:06:27.091Z,42.04
2022-08-11T00:08:56.888Z,42.02
2022-08-11T00:11:35.339Z,42.70
2022-08-11T00:14:05.226Z,42.78
2022-08-11T00:16:34.925Z,43.02
2022-08-11T00:19:05.423Z,43.37
2022-08-11T00:22:04.191Z,43.65
2022-08-11T00:24:34.981Z,43.96
2022-08-11T00:27:33.662Z,43.64
2022-08-11T00:30:02.422Z,44.08
2022-08-11T00:32:32.758Z,43.91
2022-08-11T00:35:55.338Z,44.14
2022-08-11T00:37:55.509Z,44.26
2022-08-11T00:40:29.534Z,44.16
2022-08-11T00:43:10.572Z,44.26
2022-08-11T00:45:44.064Z,44.33
2022-08-11T00:48:27.945Z,44.42
2022-08-11T00:51:11.215Z,44.60
2022-08-11T00:53:48.133Z,44.52
2022-08-11T00:56:34.200Z,44.87
2022-08-11T00:59:59.122Z,44.59
2022-08-11T01:03:05.012Z,44.88
2022-08-11T01:06:09.379Z,44.65
2022-08-11T01:08:59.727Z,44.76
2022-08-11T01:11:56.435Z,44.86
2022-08-11T01:15:14.165Z,45.19
2022-08-11T01:18:15.867Z,44.89
2022-08-11T01:21:15.935Z,45.15
2022-08-11T01:24:32.664Z,46.25
2022-08-11T01:27:27.871Z,45.49
2022-08-11T01:30:42.741Z,45.84
2022-08-11T01:33:44.382Z,46.28
2022-08-11T01:36:56.986Z,45.92
2022-08-11T01:40:02.942Z,45.94
2022-08-11T01:43:33.715Z,46.04
2022-08-11T01:46:08.961Z,46.34
2022-08-11T01:48:43.716Z,46.26
2022-08-11T01:51:47.342Z,46.82
2022-08-11T01:54:25.985Z,46.61
2022-08-11T01:57:14.116Z,46.72
2022-08-11T01:59:49.496Z,46.85
2022-08-11T02:02:50.230Z,46.67
2022-08-11T02:05:56.459Z,46.86
2022-08-11T02:08:44.248Z,47.29
2022-08-11T02:11:35.845Z,47.55
2022-08-11T02:14:29.371Z,47.18
2022-08-11T02:17:10.725Z,47.19
2022-08-11T02:20:07.619Z,47.19
2022-08-11T02:23:01.477Z,46.82
2022-08-11T02:25:35.933Z,47.13
2022-08-11T02:28:11.957Z,47.32
2022-08-11T02:31:14.646Z,47.41
2022-08-11T02:34:06.387Z,47.23
2022-08-11T02:36:44.322Z,47.40
2022-08-11T02:39:16.382Z,47.91
2022-08-11T02:42:32.695Z,48.08
2022-08-11T02:45:17.739Z,48.51
2022-08-11T02:48:09.434Z,48.04
2022-08-11T02:50:44.084Z,47.84
2022-08-11T02:53:21.692Z,47.96
2022-08-11T02:56:03.150Z,47.77
2022-08-11T02:58:41.878Z,47.72
2022-08-11T03:01:21.314Z,47.74
2022-08-11T03:03:56.592Z,47.80
2022-08-11T03:06:37.700Z,47.55
2022-08-11T03:09:11.380Z,48.04
2022-08-11T03:12:08.036Z,48.09
2022-08-11T03:15:05.747Z,48.11
2022-08-11T03:17:42.689Z,48.12
2022-08-11T03:20:23.638Z,48.32
2022-08-11T03:23:03.071Z,48.70
2022-08-11T03:25:35.782Z,48.22
2022-08-11T03:28:16.496Z,48.40
2022-08-11T03:30:54.000Z,48.24
2022-08-11T03:33:46.219Z,48.05
2022-08-11T03:36:24.304Z,48.19
2022-08-11T03:39:07.642Z,47.99
2022-08-11T03:42:02.490Z,48.11
2022-08-11T03:44:57.724Z,47.87
2022-08-11T03:47:52.658Z,48.29
2022-08-11T03:50:37.667Z,48.54
2022-08-11T03:53:17.574Z,47.93
2022-08-11T03:56:24.348Z,48.25
2022-08-11T03:59:25.252Z,48.03
2022-08-11T04:02:11.052Z,47.90
2022-08-11T04:05:28.372Z,47.92
2022-08-11T04:08:37.646Z,47.92
2022-08-11T04:12:02.889Z,48.26
2022-08-11T04:15:05.321Z,48.37
2022-08-11T04:17:59.766Z,48.49
2022-08-11T04:20:45.627Z,48.72
2022-08-11T04:24:34.525Z,48.59
2022-08-11T04:26:39.044Z,48.80
2022-08-11T04:29:36.023Z,49.16
2022-08-11T04:32:32.921Z,49.37
2022-08-11T04:35:18.972Z,49.71
2022-08-11T04:38:21.149Z,49.66
2022-08-11T04:41:32.191Z,49.58
2022-08-11T04:44:57.668Z,49.76
2022-08-11T04:48:06.268Z,49.91
2022-08-11T04:51:16.001Z,51.27
2022-08-11T04:54:16.054Z,50.93
2022-08-11T04:57:07.081Z,51.10
2022-08-11T05:00:24.055Z,51.16
2022-08-11T05:03:25.173Z,50.98
2022-08-11T05:06:37.333Z,51.01
2022-08-11T05:09:30.182Z,51.28
2022-08-11T05:12:24.881Z,50.89
2022-08-11T05:15:12.385Z,50.26
2022-08-11T05:17:59.446Z,50.37
2022-08-11T05:20:46.590Z,49.99
2022-08-11T05:23:34.541Z,49.83
2022-08-11T05:26:47.541Z,49.62
2022-08-11T07:26:28.687Z,43.78
2022-08-11T07:28:59.105Z,43.20
2022-08-11T07:31:37.213Z,43.40
2022-08-11T07:34:18.637Z,42.88
2022-08-11T07:36:52.566Z,43.27
2022-08-11T07:39:24.274Z,43.45
2022-08-11T07:41:57.290Z,43.06
2022-08-11T07:44:34.331Z,42.59
2022-08-11T07:47:21.997Z,42.74
2022-08-11T07:50:12.251Z,43.09
2022-08-11T07:52:41.723Z,42.94
2022-08-11T07:55:15.619Z,42.57
2022-08-11T07:58:16.576Z,42.12
2022-08-11T08:01:21.868Z,41.39
2022-08-11T08:04:09.231Z,41.64
2022-08-11T08:06:56.562Z,41.86
2022-08-11T08:09:43.670Z,41.82
2022-08-11T08:12:30.389Z,40.92
2022-08-11T08:15:19.896Z,42.34
2022-08-11T08:18:10.028Z,41.00
2022-08-11T08:20:47.217Z,40.68
2022-08-11T08:23:17.535Z,39.85
2022-08-11T08:25:47.658Z,39.35
2022-08-11T08:28:18.891Z,40.06
2022-08-11T08:30:51.804Z,39.75
2022-08-11T08:33:25.909Z,38.30
2022-08-11T08:36:11.919Z,38.80
2022-08-11T08:38:42.675Z,35.74
2022-08-11T08:41:13.219Z,36.71
2022-08-11T08:43:49.616Z,37.17
2022-08-11T08:46:23.591Z,35.24
2022-08-11T08:48:53.587Z,35.62
2022-08-11T08:52:02.576Z,35.54
2022-08-11T08:54:35.645Z,36.10
2022-08-11T08:57:06.465Z,36.46
2022-08-11T08:59:48.627Z,37.34
2022-08-11T09:02:34.122Z,35.39
2022-08-11T09:05:05.820Z,35.63
2022-08-11T09:07:38.602Z,33.18
2022-08-11T09:10:11.346Z,31.76
2022-08-11T09:12:43.585Z,32.87
2022-08-11T09:15:15.060Z,32.46
2022-08-11T09:17:47.893Z,31.25
2022-08-11T09:20:20.881Z,30.46
2022-08-11T09:26:17.027Z,29.92
2022-08-11T09:28:46.514Z,29.19
2022-08-11T09:31:16.229Z,28.63
2022-08-11T09:33:47.137Z,27.20
2022-08-11T09:36:33.138Z,25.79
2022-08-11T09:39:19.742Z,25.30
2022-08-11T09:42:00.969Z,25.20
2022-08-11T09:44:50.674Z,24.57
2022-08-11T09:47:24.623Z,24.24
2022-08-11T09:50:00.593Z,23.48
2022-08-11T09:52:32.743Z,22.50
2022-08-11T09:55:02.574Z,21.39
2022-08-11T09:57:48.613Z,21.48
2022-08-11T10:00:18.249Z,20.62
2022-08-11T10:02:50.021Z,20.69
2022-08-11T10:05:39.253Z,20.42
2022-08-11T10:08:10.657Z,21.86
2022-08-11T10:10:40.772Z,21.07
2022-08-11T10:14:30.572Z,21.90
2022-08-11T10:16:15.363Z,21.25
2022-08-11T10:18:52.993Z,20.18
2022-08-11T10:21:31.650Z,20.28
2022-08-11T10:24:19.518Z,20.97
2022-08-11T10:26:58.915Z,19.70
2022-08-11T10:29:51.205Z,21.47
2022-08-11T10:32:52.790Z,21.24
2022-08-11T10:35:29.519Z,21.69
2022-08-11T10:38:08.431Z,21.04
2022-08-11T10:40:41.042Z,21.82
2022-08-11T10:43:14.326Z,22.31
2022-08-11T10:46:25.737Z,21.30
2022-08-11T10:48:59.627Z,21.15
2022-08-11T10:51:50.641Z,22.41
2022-08-11T10:54:41.709Z,22.24
2022-08-11T10:57:29.320Z,22.29
2022-08-11T10:59:58.779Z,22.76
2022-08-11T11:02:28.484Z,22.40
2022-08-11T11:05:04.292Z,22.24
2022-08-11T11:07:41.514Z,22.74
2022-08-11T11:10:14.230Z,23.05
2022-08-11T11:13:04.295Z,23.26
2022-08-11T11:15:53.623Z,23.78
2022-08-11T11:18:25.234Z,23.84
2022-08-11T11:20:58.660Z,24.53
2022-08-11T11:23:34.953Z,24.25
2022-08-11T11:26:27.189Z,23.87
2022-08-11T11:29:41.908Z,23.40
2022-08-11T11:32:22.561Z,25.65
2022-08-11T11:35:12.550Z,26.73
2022-08-11T11:37:56.200Z,25.45
2022-08-11T11:40:32.356Z,25.69
2022-08-11T11:43:02.989Z,26.17
2022-08-11T11:45:32.041Z,26.45
2022-08-11T11:48:02.275Z,25.56
2022-08-11T11:50:34.607Z,26.31
2022-08-11T11:53:06.098Z,27.12
2022-08-11T11:55:35.300Z,26.41
2022-08-11T11:58:23.805Z,27.09
2022-08-11T12:01:12.107Z,27.09
2022-08-11T12:03:41.909Z,26.72
2022-08-11T12:06:14.503Z,26.41
2022-08-11T12:08:44.424Z,27.18
2022-08-11T12:11:31.891Z,26.26
2022-08-11T12:14:10.211Z,25.27
2022-08-11T12:16:41.448Z,25.38
2022-08-11T12:19:14.206Z,26.01
2022-08-11T12:22:05.251Z,26.14
2022-08-11T12:24:53.570Z,26.95
2022-08-11T12:27:25.306Z,27.38
2022-08-11T12:30:00.751Z,26.07
2022-08-11T12:32:33.943Z,26.01
2022-08-11T12:35:03.335Z,27.58
2022-08-11T12:37:35.160Z,27.43
2022-08-11T12:40:43.711Z,27.41
2022-08-11T12:43:37.918Z,28.01
2022-08-11T12:46:11.855Z,28.04
2022-08-11T12:49:04.233Z,26.81
2022-08-11T12:52:13.649Z,26.36
2022-08-11T12:55:00.620Z,25.81
2022-08-11T12:57:52.170Z,25.83
2022-08-11T13:00:39.441Z,26.96
2022-08-11T13:03:29.260Z,26.91
2022-08-11T13:05:59.823Z,27.92
2022-08-11T13:08:30.781Z,28.29
2022-08-11T13:11:19.017Z,28.28
2022-08-11T13:13:55.553Z,28.39
2022-08-11T13:16:30.545Z,28.62
2022-08-11T13:19:01.924Z,29.24
2022-08-11T13:21:31.390Z,28.05
2022-08-11T13:24:03.159Z,28.17
2022-08-11T13:26:48.762Z,27.70
2022-08-11T13:29:23.788Z,26.24
2022-08-11T13:31:54.641Z,26.49
2022-08-11T13:34:27.508Z,26.45
2022-08-11T13:36:58.365Z,26.52
2022-08-11T13:39:28.714Z,26.95
2022-08-11T13:41:59.547Z,26.48
2022-08-11T13:44:31.230Z,26.81
2022-08-11T13:47:02.627Z,27.04
2022-08-11T13:49:33.917Z,27.37
2022-08-11T13:52:03.589Z,27.60
2022-08-11T13:54:36.357Z,27.60
2022-08-11T13:57:13.558Z,27.93
2022-08-11T14:00:13.188Z,28.24
2022-08-11T14:02:57.238Z,27.23
2022-08-11T14:05:30.635Z,27.38
2022-08-11T14:08:03.310Z,27.51
2022-08-11T14:10:34.307Z,27.02
2022-08-11T14:13:25.739Z,27.64
2022-08-11T14:15:55.194Z,28.22
2022-08-11T14:18:27.292Z,28.06
2022-08-11T14:21:17.570Z,27.97
2022-08-11T14:23:49.491Z,27.93
2022-08-11T14:26:27.890Z,28.11
2022-08-11T14:28:59.277Z,28.33
2022-08-11T14:31:30.451Z,28.12
2022-08-11T14:34:03.624Z,27.77
2022-08-11T14:36:37.216Z,26.82
2022-08-11T14:39:13.056Z,27.00
2022-08-11T14:42:11.672Z,27.47
2022-08-11T14:45:16.706Z,27.40
2022-08-11T14:47:48.902Z,28.49
2022-08-11T14:50:23.274Z,28.11
2022-08-11T14:52:56.737Z,28.86
2022-08-11T14:55:44.515Z,29.14
2022-08-11T14:58:16.457Z,29.15
2022-08-11T15:00:45.659Z,29.08
2022-08-11T15:03:14.715Z,28.24
2022-08-11T15:05:57.262Z,28.70
2022-08-11T15:08:48.595Z,28.24
2022-08-11T15:11:36.818Z,27.68
2022-08-11T15:14:07.972Z,27.43
2022-08-11T15:16:56.154Z,27.24
2022-08-11T15:19:40.569Z,28.08
2022-08-11T15:22:28.941Z,28.49
2022-08-11T15:25:00.772Z,29.55
2022-08-11T15:27:49.457Z,29.97
2022-08-11T15:30:36.138Z,30.99
2022-08-11T15:33:25.847Z,29.63
2022-08-11T15:36:27.911Z,28.19
2022-08-11T15:39:05.212Z,28.50
2022-08-11T15:41:58.902Z,30.03
2022-08-11T15:45:02.070Z,30.79
2022-08-11T15:47:41.479Z,30.18
2022-08-11T15:50:15.460Z,30.78
2022-08-11T15:52:49.638Z,30.81
2022-08-11T15:55:18.745Z,31.18
2022-08-11T15:58:08.724Z,30.52
2022-08-11T16:00:56.894Z,30.48
2022-08-11T16:04:07.965Z,30.19
2022-08-11T16:06:42.800Z,31.01
2022-08-11T16:09:19.172Z,30.71
2022-08-11T16:11:49.690Z,30.85
2022-08-11T16:14:38.319Z,31.01
2022-08-11T16:17:09.367Z,30.72
2022-08-11T16:19:39.833Z,30.97
2022-08-11T16:22:13.524Z,30.73
2022-08-11T16:27:03.732Z,30.98
2022-08-11T16:27:38.607Z,30.52
2022-08-11T16:30:10.444Z,29.94
2022-08-11T16:32:43.178Z,29.82
2022-08-11T16:35:32.217Z,30.01
2022-08-11T16:38:18.928Z,29.83
2022-08-11T16:40:49.108Z,30.58
2022-08-11T16:43:37.622Z,30.27
2022-08-11T16:46:26.635Z,30.48
2022-08-11T16:48:56.763Z,30.06
2022-08-11T16:51:25.391Z,30.62
2022-08-11T16:54:05.305Z,30.83
2022-08-11T16:56:38.801Z,31.24
2022-08-11T16:59:17.353Z,30.94
2022-08-11T17:02:00.623Z,31.69
2022-08-11T17:04:53.616Z,31.66
2022-08-11T17:07:43.246Z,32.23
2022-08-11T17:10:53.502Z,32.32
2022-08-11T17:13:30.443Z,32.48
2022-08-11T17:16:12.084Z,32.22
2022-08-11T17:18:58.502Z,32.59
2022-08-11T17:21:29.983Z,32.53
2022-08-11T17:24:06.420Z,33.01
2022-08-11T17:26:57.141Z,33.44
2022-08-11T17:29:30.017Z,33.88
2022-08-11T17:32:18.181Z,34.17
2022-08-11T17:35:07.330Z,34.10
2022-08-11T17:37:37.889Z,34.95
2022-08-11T17:40:12.448Z,35.03
2022-08-11T17:43:11.965Z,34.97
2022-08-11T17:45:56.639Z,34.94
2022-08-11T17:48:27.925Z,35.14
2022-08-11T17:51:00.537Z,35.39
2022-08-11T17:54:02.247Z,35.51
2022-08-11T17:57:08.237Z,35.46
2022-08-11T17:59:53.529Z,35.86
2022-08-11T18:02:43.983Z,36.22
2022-08-11T18:05:14.115Z,36.27
2022-08-11T18:08:03.895Z,36.98
2022-08-11T18:10:52.229Z,36.97
2022-08-11T18:13:41.861Z,36.84
2022-08-11T18:16:28.416Z,36.63
2022-08-11T18:19:14.477Z,36.78
2022-08-11T18:22:14.812Z,36.48
2022-08-11T18:25:07.574Z,37.15
2022-08-11T18:27:54.752Z,36.94
2022-08-11T18:30:42.915Z,37.22
2022-08-11T18:36:41.399Z,37.40
2022-08-11T18:39:31.046Z,37.70
2022-08-11T18:42:29.085Z,37.51
2022-08-11T18:45:19.203Z,36.98
2022-08-11T18:48:11.332Z,37.13
2022-08-11T18:51:29.845Z,37.50
2022-08-11T18:54:09.528Z,37.41
2022-08-11T18:56:55.513Z,38.12
2022-08-11T18:59:45.988Z,38.38
2022-08-11T19:02:48.269Z,38.28
2022-08-11T19:06:32.174Z,38.72
2022-08-11T19:08:53.669Z,38.58
2022-08-11T19:11:42.692Z,38.82
2022-08-11T19:14:31.558Z,38.64
2022-08-11T19:17:44.398Z,38.60
2022-08-11T19:20:30.305Z,38.76
2022-08-11T19:23:16.887Z,38.75
2022-08-11T19:26:03.963Z,38.46
2022-08-11T19:28:52.586Z,38.57
2022-08-11T19:31:44.025Z,39.03
2022-08-11T19:34:33.588Z,38.94
2022-08-11T19:37:24.043Z,39.09
2022-08-11T19:40:11.763Z,38.36
2022-08-11T19:42:57.720Z,38.87
2022-08-11T19:45:44.836Z,38.33
2022-08-11T19:48:40.110Z,38.24
2022-08-11T19:51:28.747Z,38.56
2022-08-11T19:54:16.270Z,38.43
2022-08-11T19:57:03.951Z,38.04
2022-08-11T19:59:51.208Z,38.59
2022-08-11T20:02:36.820Z,38.60
2022-08-11T20:05:23.419Z,38.87
2022-08-11T20:08:12.582Z,38.90
2022-08-11T20:10:59.796Z,39.22
2022-08-11T20:13:45.898Z,39.79
2022-08-11T20:16:37.131Z,39.18
2022-08-11T20:19:26.177Z,39.12
2022-08-11T20:22:31.088Z,39.66
2022-08-11T20:25:18.871Z,39.50
2022-08-11T20:28:07.003Z,39.76
2022-08-11T20:30:54.256Z,39.56
2022-08-11T20:33:41.580Z,39.51
2022-08-11T20:36:29.260Z,39.91
2022-08-11T20:39:17.241Z,40.00
2022-08-11T20:42:06.402Z,40.04
2022-08-11T20:44:55.952Z,40.47
2022-08-11T20:47:58.985Z,40.62
2022-08-11T20:50:46.487Z,40.32
2022-08-11T20:53:36.014Z,40.67
2022-08-11T20:56:28.771Z,40.78
2022-08-11T20:59:21.617Z,40.84
2022-08-11T21:02:10.542Z,41.18
2022-08-11T21:05:00.028Z,41.13
2022-08-11T21:07:57.080Z,41.34
2022-08-11T21:10:50.543Z,41.50
2022-08-11T21:13:42.091Z,41.65
2022-08-11T21:16:33.917Z,41.57
2022-08-11T21:20:01.417Z,41.77
2022-08-11T21:22:37.428Z,41.76
2022-08-11T21:25:26.126Z,41.87
2022-08-11T21:28:15.621Z,41.89
2022-08-11T21:31:02.114Z,42.09
2022-08-11T21:33:50.524Z,42.11
2022-08-11T21:36:38.687Z,42.41
2022-08-11T21:39:26.544Z,42.50
2022-08-11T21:42:13.719Z,42.58
2022-08-11T21:45:01.412Z,42.60
2022-08-11T21:48:00.790Z,42.81
2022-08-11T21:50:48.967Z,42.71
2022-08-11T21:53:34.538Z,43.68
2022-08-11T21:56:22.058Z,43.08
2022-08-11T21:59:13.220Z,43.29
2022-08-11T22:01:59.496Z,43.44
2022-08-11T22:04:46.107Z,43.80
2022-08-11T22:07:40.896Z,43.78
2022-08-11T22:10:42.238Z,43.73
2022-08-11T22:13:30.322Z,43.74
2022-08-11T22:16:16.455Z,45.34
2022-08-11T22:19:03.044Z,45.07
2022-08-11T22:22:01.486Z,45.26
2022-08-11T22:24:52.929Z,45.27
2022-08-11T22:27:39.509Z,45.05
2022-08-11T22:30:26.947Z,45.14
2022-08-11T22:33:15.162Z,45.20
2022-08-11T22:36:03.227Z,45.18
2022-08-11T22:38:51.207Z,45.13
2022-08-11T22:41:39.552Z,45.32
2022-08-11T22:44:26.145Z,45.27
2022-08-11T22:47:15.493Z,45.22
2022-08-11T22:50:11.731Z,45.26
2022-08-11T22:52:59.921Z,45.11
2022-08-11T22:55:46.428Z,45.25
2022-08-11T22:58:34.746Z,45.15
2022-08-11T23:01:21.449Z,45.15
2022-08-11T23:04:08.045Z,45.10
2022-08-11T23:06:54.168Z,45.53
2022-08-11T23:09:42.793Z,45.59
2022-08-11T23:12:29.009Z,45.59
2022-08-11T23:15:16.888Z,45.60
2022-08-11T23:18:03.644Z,45.48
2022-08-11T23:20:50.313Z,46.09
2022-08-11T23:23:38.505Z,46.13
2022-08-11T23:26:24.684Z,46.23
2022-08-11T23:29:12.869Z,46.24
2022-08-11T23:32:01.119Z,46.57
2022-08-11T23:35:36.964Z,46.97
2022-08-11T23:38:00.037Z,46.87
2022-08-11T23:40:45.930Z,46.75
2022-08-11T23:43:39.030Z,47.12
2022-08-11T23:46:25.415Z,47.35
2022-08-11T23:49:16.139Z,47.00
2022-08-11T23:52:04.012Z,47.53
2022-08-11T23:54:52.112Z,47.63
2022-08-11T23:57:38.690Z,47.61
